sensor_id;sensor_type;location;lat;lon;timestamp;P1;durP1;ratioP1;P2;durP2;ratioP2
19026;SDS011;9646;52.034;5.554;2023-02-10T00:02:06;10.82;;;7.70;;
19026;SDS011;9646;52.034;5.554;2023-02-10T00:04:33;13.00;;;8.32;;
19026;SDS011;9646;52.034;5.554;2023-02-10T00:07:00;14.80;;;8.90;;
19026;SDS011;9646;52.034;5.554;2023-02-10T00:09:27;10.50;;;6.55;;
19026;SDS011;9646;52.034;5.554;2023-02-10T00:11:54;14.05;;;7.00;;
19026;SDS011;9646;52.034;5.554;2023-02-10T00:14:26;14.43;;;6.75;;
19026;SDS011;9646;52.034;5.554;2023-02-10T00:16:53;7.65;;;6.10;;
19026;SDS011;9646;52.034;5.554;2023-02-10T00:19:23;12.00;;;7.10;;
19026;SDS011;9646;52.034;5.554;2023-02-10T00:21:51;10.90;;;7.13;;
19026;SDS011;9646;52.034;5.554;2023-02-10T00:24:18;11.68;;;6.70;;
19026;SDS011;9646;52.034;5.554;2023-02-10T00:26:46;12.38;;;6.75;;
19026;SDS011;9646;52.034;5.554;2023-02-10T00:29:13;9.75;;;6.80;;
19026;SDS011;9646;52.034;5.554;2023-02-10T00:31:40;9.77;;;6.65;;
19026;SDS011;9646;52.034;5.554;2023-02-10T00:34:08;10.25;;;6.10;;
19026;SDS011;9646;52.034;5.554;2023-02-10T00:36:38;11.02;;;7.82;;
19026;SDS011;9646;52.034;5.554;2023-02-10T00:39:05;9.30;;;6.03;;
19026;SDS011;9646;52.034;5.554;2023-02-10T00:41:32;11.43;;;7.25;;
19026;SDS011;9646;52.034;5.554;2023-02-10T00:44:01;13.73;;;7.93;;
19026;SDS011;9646;52.034;5.554;2023-02-10T00:46:28;9.65;;;6.18;;
19026;SDS011;9646;52.034;5.554;2023-02-10T00:48:55;9.23;;;6.15;;
19026;SDS011;9646;52.034;5.554;2023-02-10T00:51:23;9.55;;;6.68;;
19026;SDS011;9646;52.034;5.554;2023-02-10T00:53:51;14.27;;;7.95;;
19026;SDS011;9646;52.034;5.554;2023-02-10T00:56:18;10.05;;;6.15;;
19026;SDS011;9646;52.034;5.554;2023-02-10T00:58:46;8.73;;;5.95;;
19026;SDS011;9646;52.034;5.554;2023-02-10T01:01:14;10.23;;;6.55;;
19026;SDS011;9646;52.034;5.554;2023-02-10T01:03:41;11.98;;;6.75;;
19026;SDS011;9646;52.034;5.554;2023-02-10T01:06:09;11.07;;;8.23;;
19026;SDS011;9646;52.034;5.554;2023-02-10T01:08:36;12.55;;;6.60;;
19026;SDS011;9646;52.034;5.554;2023-02-10T01:11:05;11.32;;;6.80;;
19026;SDS011;9646;52.034;5.554;2023-02-10T01:13:33;13.30;;;8.60;;
19026;SDS011;9646;52.034;5.554;2023-02-10T01:16:00;12.73;;;7.80;;
19026;SDS011;9646;52.034;5.554;2023-02-10T01:18:27;12.23;;;6.70;;
19026;SDS011;9646;52.034;5.554;2023-02-10T01:20:55;14.23;;;8.60;;
19026;SDS011;9646;52.034;5.554;2023-02-10T01:23:22;8.45;;;5.70;;
19026;SDS011;9646;52.034;5.554;2023-02-10T01:25:49;10.63;;;6.07;;
19026;SDS011;9646;52.034;5.554;2023-02-10T01:28:17;10.57;;;6.47;;
19026;SDS011;9646;52.034;5.554;2023-02-10T01:30:45;12.77;;;6.50;;
19026;SDS011;9646;52.034;5.554;2023-02-10T01:33:13;10.95;;;7.85;;
19026;SDS011;9646;52.034;5.554;2023-02-10T01:35:40;15.10;;;8.20;;
19026;SDS011;9646;52.034;5.554;2023-02-10T01:38:07;13.23;;;7.50;;
19026;SDS011;9646;52.034;5.554;2023-02-10T01:40:34;11.15;;;6.68;;
19026;SDS011;9646;52.034;5.554;2023-02-10T01:43:01;12.73;;;6.55;;
19026;SDS011;9646;52.034;5.554;2023-02-10T01:45:31;12.85;;;8.70;;
19026;SDS011;9646;52.034;5.554;2023-02-10T01:47:58;10.63;;;7.18;;
19026;SDS011;9646;52.034;5.554;2023-02-10T01:50:27;11.75;;;7.50;;
19026;SDS011;9646;52.034;5.554;2023-02-10T01:52:55;12.45;;;8.65;;
19026;SDS011;9646;52.034;5.554;2023-02-10T01:55:24;10.30;;;6.22;;
19026;SDS011;9646;52.034;5.554;2023-02-10T01:57:53;9.05;;;6.47;;
19026;SDS011;9646;52.034;5.554;2023-02-10T02:00:21;10.60;;;6.03;;
19026;SDS011;9646;52.034;5.554;2023-02-10T02:02:50;10.85;;;6.82;;
19026;SDS011;9646;52.034;5.554;2023-02-10T02:05:19;9.85;;;6.55;;
19026;SDS011;9646;52.034;5.554;2023-02-10T02:07:46;13.52;;;8.63;;
19026;SDS011;9646;52.034;5.554;2023-02-10T02:10:14;9.18;;;6.25;;
19026;SDS011;9646;52.034;5.554;2023-02-10T02:12:42;10.80;;;6.15;;
19026;SDS011;9646;52.034;5.554;2023-02-10T02:15:12;10.70;;;7.00;;
19026;SDS011;9646;52.034;5.554;2023-02-10T02:17:42;12.88;;;7.32;;
19026;SDS011;9646;52.034;5.554;2023-02-10T02:20:19;8.82;;;6.70;;
19026;SDS011;9646;52.034;5.554;2023-02-10T02:23:17;12.57;;;7.82;;
19026;SDS011;9646;52.034;5.554;2023-02-10T02:25:58;13.65;;;9.02;;
19026;SDS011;9646;52.034;5.554;2023-02-10T02:28:34;12.70;;;8.32;;
19026;SDS011;9646;52.034;5.554;2023-02-10T02:31:13;16.75;;;10.30;;
19026;SDS011;9646;52.034;5.554;2023-02-10T02:33:45;18.95;;;12.60;;
19026;SDS011;9646;52.034;5.554;2023-02-10T02:36:13;16.77;;;8.48;;
19026;SDS011;9646;52.034;5.554;2023-02-10T02:38:42;12.52;;;8.15;;
19026;SDS011;9646;52.034;5.554;2023-02-10T02:41:09;12.50;;;7.53;;
19026;SDS011;9646;52.034;5.554;2023-02-10T02:43:36;14.93;;;10.32;;
19026;SDS011;9646;52.034;5.554;2023-02-10T02:46:05;14.65;;;9.68;;
19026;SDS011;9646;52.034;5.554;2023-02-10T02:48:38;15.32;;;10.07;;
19026;SDS011;9646;52.034;5.554;2023-02-10T02:51:12;14.88;;;10.00;;
19026;SDS011;9646;52.034;5.554;2023-02-10T02:53:43;13.07;;;7.18;;
19026;SDS011;9646;52.034;5.554;2023-02-10T02:56:14;10.27;;;7.82;;
19026;SDS011;9646;52.034;5.554;2023-02-10T02:58:47;12.85;;;8.27;;
19026;SDS011;9646;52.034;5.554;2023-02-10T03:01:19;10.95;;;7.97;;
19026;SDS011;9646;52.034;5.554;2023-02-10T03:03:51;16.85;;;11.07;;
19026;SDS011;9646;52.034;5.554;2023-02-10T03:06:19;14.73;;;10.15;;
19026;SDS011;9646;52.034;5.554;2023-02-10T03:08:46;15.88;;;9.43;;
19026;SDS011;9646;52.034;5.554;2023-02-10T03:11:13;16.83;;;10.93;;
19026;SDS011;9646;52.034;5.554;2023-02-10T03:13:41;18.83;;;12.68;;
19026;SDS011;9646;52.034;5.554;2023-02-10T03:16:08;15.30;;;11.75;;
19026;SDS011;9646;52.034;5.554;2023-02-10T03:18:35;14.18;;;10.13;;
19026;SDS011;9646;52.034;5.554;2023-02-10T03:21:02;14.25;;;10.93;;
19026;SDS011;9646;52.034;5.554;2023-02-10T03:23:30;14.75;;;9.50;;
19026;SDS011;9646;52.034;5.554;2023-02-10T03:25:58;20.25;;;13.13;;
19026;SDS011;9646;52.034;5.554;2023-02-10T03:28:25;19.13;;;13.43;;
19026;SDS011;9646;52.034;5.554;2023-02-10T03:30:52;15.95;;;11.02;;
19026;SDS011;9646;52.034;5.554;2023-02-10T03:33:20;18.98;;;11.80;;
19026;SDS011;9646;52.034;5.554;2023-02-10T03:35:47;14.30;;;8.73;;
19026;SDS011;9646;52.034;5.554;2023-02-10T03:38:14;20.20;;;14.75;;
19026;SDS011;9646;52.034;5.554;2023-02-10T03:40:43;17.30;;;11.32;;
19026;SDS011;9646;52.034;5.554;2023-02-10T03:43:10;18.25;;;12.27;;
19026;SDS011;9646;52.034;5.554;2023-02-10T03:45:38;17.90;;;12.27;;
19026;SDS011;9646;52.034;5.554;2023-02-10T03:48:05;16.58;;;11.45;;
19026;SDS011;9646;52.034;5.554;2023-02-10T03:50:32;17.27;;;11.30;;
19026;SDS011;9646;52.034;5.554;2023-02-10T03:52:59;15.45;;;9.88;;
19026;SDS011;9646;52.034;5.554;2023-02-10T03:55:27;17.98;;;11.10;;
19026;SDS011;9646;52.034;5.554;2023-02-10T03:57:55;15.55;;;11.18;;
19026;SDS011;9646;52.034;5.554;2023-02-10T04:00:22;19.02;;;14.55;;
19026;SDS011;9646;52.034;5.554;2023-02-10T04:02:50;17.35;;;12.80;;
19026;SDS011;9646;52.034;5.554;2023-02-10T04:05:17;15.75;;;11.02;;
19026;SDS011;9646;52.034;5.554;2023-02-10T04:07:44;12.90;;;8.77;;
19026;SDS011;9646;52.034;5.554;2023-02-10T04:10:11;14.50;;;9.93;;
19026;SDS011;9646;52.034;5.554;2023-02-10T04:12:38;14.30;;;10.57;;
19026;SDS011;9646;52.034;5.554;2023-02-10T04:15:07;17.27;;;12.07;;
19026;SDS011;9646;52.034;5.554;2023-02-10T04:17:34;19.13;;;14.13;;
19026;SDS011;9646;52.034;5.554;2023-02-10T04:20:01;14.20;;;9.75;;
19026;SDS011;9646;52.034;5.554;2023-02-10T04:22:28;16.65;;;11.80;;
19026;SDS011;9646;52.034;5.554;2023-02-10T04:24:56;19.48;;;13.45;;
19026;SDS011;9646;52.034;5.554;2023-02-10T04:27:23;17.88;;;11.20;;
19026;SDS011;9646;52.034;5.554;2023-02-10T04:29:50;23.33;;;15.20;;
19026;SDS011;9646;52.034;5.554;2023-02-10T04:32:19;17.65;;;13.52;;
19026;SDS011;9646;52.034;5.554;2023-02-10T04:34:46;15.95;;;12.02;;
19026;SDS011;9646;52.034;5.554;2023-02-10T04:37:13;23.77;;;17.08;;
19026;SDS011;9646;52.034;5.554;2023-02-10T04:39:40;22.45;;;15.32;;
19026;SDS011;9646;52.034;5.554;2023-02-10T04:42:07;13.77;;;10.15;;
19026;SDS011;9646;52.034;5.554;2023-02-10T04:44:34;11.15;;;8.23;;
19026;SDS011;9646;52.034;5.554;2023-02-10T04:47:01;12.73;;;8.68;;
19026;SDS011;9646;52.034;5.554;2023-02-10T04:49:30;15.30;;;9.68;;
19026;SDS011;9646;52.034;5.554;2023-02-10T04:51:57;19.55;;;13.15;;
19026;SDS011;9646;52.034;5.554;2023-02-10T04:54:24;19.42;;;13.52;;
19026;SDS011;9646;52.034;5.554;2023-02-10T04:56:51;19.73;;;13.10;;
19026;SDS011;9646;52.034;5.554;2023-02-10T04:59:18;18.20;;;13.90;;
19026;SDS011;9646;52.034;5.554;2023-02-10T05:01:45;19.25;;;14.15;;
19026;SDS011;9646;52.034;5.554;2023-02-10T05:04:12;13.85;;;9.00;;
19026;SDS011;9646;52.034;5.554;2023-02-10T05:06:41;12.98;;;9.05;;
19026;SDS011;9646;52.034;5.554;2023-02-10T05:09:08;14.65;;;9.10;;
19026;SDS011;9646;52.034;5.554;2023-02-10T05:11:35;17.20;;;11.73;;
19026;SDS011;9646;52.034;5.554;2023-02-10T05:14:02;15.68;;;10.35;;
19026;SDS011;9646;52.034;5.554;2023-02-10T05:16:29;18.90;;;12.98;;
19026;SDS011;9646;52.034;5.554;2023-02-10T05:18:56;15.38;;;9.32;;
19026;SDS011;9646;52.034;5.554;2023-02-10T05:21:23;16.40;;;11.70;;
19026;SDS011;9646;52.034;5.554;2023-02-10T05:23:51;18.25;;;12.75;;
19026;SDS011;9646;52.034;5.554;2023-02-10T05:26:18;12.15;;;8.48;;
19026;SDS011;9646;52.034;5.554;2023-02-10T05:28:45;14.98;;;10.05;;
19026;SDS011;9646;52.034;5.554;2023-02-10T05:31:12;24.13;;;17.85;;
19026;SDS011;9646;52.034;5.554;2023-02-10T05:33:40;16.63;;;10.20;;
19026;SDS011;9646;52.034;5.554;2023-02-10T05:36:07;14.43;;;10.98;;
19026;SDS011;9646;52.034;5.554;2023-02-10T05:38:34;14.65;;;10.93;;
19026;SDS011;9646;52.034;5.554;2023-02-10T05:41:03;20.75;;;14.90;;
19026;SDS011;9646;52.034;5.554;2023-02-10T05:43:30;13.63;;;9.60;;
19026;SDS011;9646;52.034;5.554;2023-02-10T05:45:57;14.10;;;9.82;;
19026;SDS011;9646;52.034;5.554;2023-02-10T05:48:24;23.25;;;15.27;;
19026;SDS011;9646;52.034;5.554;2023-02-10T05:50:51;13.70;;;8.93;;
19026;SDS011;9646;52.034;5.554;2023-02-10T05:53:18;13.30;;;8.90;;
19026;SDS011;9646;52.034;5.554;2023-02-10T05:55:45;20.67;;;13.55;;
19026;SDS011;9646;52.034;5.554;2023-02-10T05:58:14;22.08;;;13.60;;
19026;SDS011;9646;52.034;5.554;2023-02-10T06:00:41;21.50;;;14.70;;
19026;SDS011;9646;52.034;5.554;2023-02-10T06:03:08;21.80;;;15.35;;
19026;SDS011;9646;52.034;5.554;2023-02-10T06:05:35;20.08;;;14.38;;
19026;SDS011;9646;52.034;5.554;2023-02-10T06:08:02;16.52;;;10.55;;
19026;SDS011;9646;52.034;5.554;2023-02-10T06:10:29;27.45;;;16.52;;
19026;SDS011;9646;52.034;5.554;2023-02-10T06:12:56;19.15;;;13.15;;
19026;SDS011;9646;52.034;5.554;2023-02-10T06:15:25;20.90;;;14.45;;
19026;SDS011;9646;52.034;5.554;2023-02-10T06:17:52;17.60;;;12.00;;
19026;SDS011;9646;52.034;5.554;2023-02-10T06:20:19;27.63;;;17.70;;
19026;SDS011;9646;52.034;5.554;2023-02-10T06:22:46;18.75;;;12.38;;
19026;SDS011;9646;52.034;5.554;2023-02-10T06:25:13;21.25;;;13.98;;
19026;SDS011;9646;52.034;5.554;2023-02-10T06:27:40;21.10;;;13.13;;
19026;SDS011;9646;52.034;5.554;2023-02-10T06:30:08;19.45;;;13.05;;
19026;SDS011;9646;52.034;5.554;2023-02-10T06:32:36;22.10;;;13.88;;
19026;SDS011;9646;52.034;5.554;2023-02-10T06:35:03;24.85;;;14.93;;
19026;SDS011;9646;52.034;5.554;2023-02-10T06:37:31;18.15;;;11.98;;
19026;SDS011;9646;52.034;5.554;2023-02-10T06:39:58;14.52;;;9.52;;
19026;SDS011;9646;52.034;5.554;2023-02-10T06:42:26;18.60;;;11.27;;
19026;SDS011;9646;52.034;5.554;2023-02-10T06:44:53;18.05;;;12.30;;
19026;SDS011;9646;52.034;5.554;2023-02-10T06:47:20;13.65;;;8.73;;
19026;SDS011;9646;52.034;5.554;2023-02-10T06:49:48;12.45;;;8.10;;
19026;SDS011;9646;52.034;5.554;2023-02-10T06:52:15;19.75;;;11.98;;
19026;SDS011;9646;52.034;5.554;2023-02-10T06:54:42;14.77;;;9.98;;
19026;SDS011;9646;52.034;5.554;2023-02-10T06:57:10;17.70;;;11.27;;
19026;SDS011;9646;52.034;5.554;2023-02-10T06:59:37;20.58;;;12.88;;
19026;SDS011;9646;52.034;5.554;2023-02-10T07:02:04;18.17;;;12.45;;
19026;SDS011;9646;52.034;5.554;2023-02-10T07:04:34;12.95;;;8.93;;
19026;SDS011;9646;52.034;5.554;2023-02-10T07:07:03;18.88;;;14.07;;
19026;SDS011;9646;52.034;5.554;2023-02-10T07:09:30;17.00;;;11.77;;
19026;SDS011;9646;52.034;5.554;2023-02-10T07:11:57;20.83;;;14.55;;
19026;SDS011;9646;52.034;5.554;2023-02-10T07:14:24;16.33;;;11.40;;
19026;SDS011;9646;52.034;5.554;2023-02-10T07:16:51;13.18;;;9.27;;
19026;SDS011;9646;52.034;5.554;2023-02-10T07:19:18;15.27;;;8.95;;
19026;SDS011;9646;52.034;5.554;2023-02-10T07:21:45;18.08;;;9.02;;
19026;SDS011;9646;52.034;5.554;2023-02-10T07:24:13;21.02;;;13.57;;
19026;SDS011;9646;52.034;5.554;2023-02-10T07:26:40;20.77;;;14.60;;
19026;SDS011;9646;52.034;5.554;2023-02-10T07:29:07;19.52;;;12.27;;
19026;SDS011;9646;52.034;5.554;2023-02-10T07:31:34;17.45;;;11.25;;
19026;SDS011;9646;52.034;5.554;2023-02-10T07:34:02;20.70;;;13.20;;
19026;SDS011;9646;52.034;5.554;2023-02-10T07:36:29;24.17;;;15.77;;
19026;SDS011;9646;52.034;5.554;2023-02-10T07:38:56;16.38;;;10.25;;
19026;SDS011;9646;52.034;5.554;2023-02-10T07:41:24;21.08;;;14.25;;
19026;SDS011;9646;52.034;5.554;2023-02-10T07:43:51;16.17;;;9.80;;
19026;SDS011;9646;52.034;5.554;2023-02-10T07:46:19;23.70;;;15.60;;
19026;SDS011;9646;52.034;5.554;2023-02-10T07:48:46;20.08;;;12.38;;
19026;SDS011;9646;52.034;5.554;2023-02-10T07:51:13;14.88;;;8.82;;
19026;SDS011;9646;52.034;5.554;2023-02-10T07:53:40;21.83;;;14.00;;
19026;SDS011;9646;52.034;5.554;2023-02-10T07:56:07;19.15;;;12.80;;
19026;SDS011;9646;52.034;5.554;2023-02-10T07:58:36;22.05;;;11.88;;
19026;SDS011;9646;52.034;5.554;2023-02-10T08:01:05;19.83;;;12.52;;
19026;SDS011;9646;52.034;5.554;2023-02-10T08:03:32;23.45;;;15.93;;
19026;SDS011;9646;52.034;5.554;2023-02-10T08:05:59;26.15;;;19.52;;
19026;SDS011;9646;52.034;5.554;2023-02-10T08:08:26;26.40;;;16.42;;
19026;SDS011;9646;52.034;5.554;2023-02-10T08:10:54;27.48;;;19.95;;
19026;SDS011;9646;52.034;5.554;2023-02-10T08:13:21;17.83;;;11.00;;
19026;SDS011;9646;52.034;5.554;2023-02-10T08:15:50;19.08;;;11.00;;
19026;SDS011;9646;52.034;5.554;2023-02-10T08:18:17;17.35;;;11.52;;
19026;SDS011;9646;52.034;5.554;2023-02-10T08:20:44;26.80;;;18.27;;
19026;SDS011;9646;52.034;5.554;2023-02-10T08:23:12;21.10;;;14.93;;
19026;SDS011;9646;52.034;5.554;2023-02-10T08:25:40;16.58;;;10.43;;
19026;SDS011;9646;52.034;5.554;2023-02-10T08:28:07;22.08;;;14.07;;
19026;SDS011;9646;52.034;5.554;2023-02-10T08:30:34;21.67;;;15.75;;
19026;SDS011;9646;52.034;5.554;2023-02-10T08:33:03;20.77;;;11.32;;
19026;SDS011;9646;52.034;5.554;2023-02-10T08:35:30;18.20;;;11.30;;
19026;SDS011;9646;52.034;5.554;2023-02-10T08:37:57;20.83;;;12.63;;
19026;SDS011;9646;52.034;5.554;2023-02-10T08:40:24;19.08;;;10.70;;
19026;SDS011;9646;52.034;5.554;2023-02-10T08:42:51;17.92;;;12.45;;
19026;SDS011;9646;52.034;5.554;2023-02-10T08:45:18;17.27;;;10.77;;
19026;SDS011;9646;52.034;5.554;2023-02-10T08:47:45;24.38;;;16.70;;
19026;SDS011;9646;52.034;5.554;2023-02-10T08:50:14;20.25;;;13.55;;
19026;SDS011;9646;52.034;5.554;2023-02-10T08:52:41;16.15;;;11.25;;
19026;SDS011;9646;52.034;5.554;2023-02-10T08:55:08;20.25;;;11.98;;
19026;SDS011;9646;52.034;5.554;2023-02-10T08:57:36;19.73;;;11.95;;
19026;SDS011;9646;52.034;5.554;2023-02-10T09:00:03;19.65;;;11.88;;
19026;SDS011;9646;52.034;5.554;2023-02-10T09:02:30;20.98;;;13.95;;
19026;SDS011;9646;52.034;5.554;2023-02-10T09:04:57;20.42;;;12.05;;
19026;SDS011;9646;52.034;5.554;2023-02-10T09:07:26;17.13;;;11.45;;
19026;SDS011;9646;52.034;5.554;2023-02-10T09:09:53;18.02;;;11.95;;
19026;SDS011;9646;52.034;5.554;2023-02-10T09:12:20;18.52;;;12.40;;
19026;SDS011;9646;52.034;5.554;2023-02-10T09:14:47;17.80;;;11.55;;
19026;SDS011;9646;52.034;5.554;2023-02-10T09:17:14;18.27;;;11.55;;
19026;SDS011;9646;52.034;5.554;2023-02-10T09:19:41;18.92;;;12.02;;
19026;SDS011;9646;52.034;5.554;2023-02-10T09:22:08;16.70;;;11.25;;
19026;SDS011;9646;52.034;5.554;2023-02-10T09:24:37;20.65;;;13.75;;
19026;SDS011;9646;52.034;5.554;2023-02-10T09:27:04;18.92;;;12.85;;
19026;SDS011;9646;52.034;5.554;2023-02-10T09:29:31;18.58;;;11.93;;
19026;SDS011;9646;52.034;5.554;2023-02-10T09:31:58;17.95;;;13.70;;
19026;SDS011;9646;52.034;5.554;2023-02-10T09:34:25;18.40;;;12.45;;
19026;SDS011;9646;52.034;5.554;2023-02-10T09:36:54;16.67;;;11.45;;
19026;SDS011;9646;52.034;5.554;2023-02-10T09:39:23;17.33;;;11.35;;
19026;SDS011;9646;52.034;5.554;2023-02-10T09:41:54;16.77;;;11.38;;
19026;SDS011;9646;52.034;5.554;2023-02-10T09:44:22;17.55;;;12.15;;
19026;SDS011;9646;52.034;5.554;2023-02-10T09:49:47;16.10;;;11.00;;
19026;SDS011;9646;52.034;5.554;2023-02-10T09:52:21;20.00;;;13.27;;
19026;SDS011;9646;52.034;5.554;2023-02-10T09:54:53;16.80;;;11.35;;
19026;SDS011;9646;52.034;5.554;2023-02-10T09:57:22;18.75;;;12.18;;
19026;SDS011;9646;52.034;5.554;2023-02-10T09:59:51;23.60;;;16.20;;
19026;SDS011;9646;52.034;5.554;2023-02-10T10:02:21;19.13;;;12.00;;
19026;SDS011;9646;52.034;5.554;2023-02-10T10:04:48;20.38;;;14.73;;
19026;SDS011;9646;52.034;5.554;2023-02-10T10:07:20;21.90;;;15.48;;
19026;SDS011;9646;52.034;5.554;2023-02-10T10:09:50;23.60;;;15.75;;
19026;SDS011;9646;52.034;5.554;2023-02-10T10:12:18;18.58;;;12.90;;
19026;SDS011;9646;52.034;5.554;2023-02-10T10:14:47;22.60;;;14.50;;
19026;SDS011;9646;52.034;5.554;2023-02-10T10:17:26;28.45;;;18.75;;
19026;SDS011;9646;52.034;5.554;2023-02-10T10:20:02;20.40;;;12.52;;
19026;SDS011;9646;52.034;5.554;2023-02-10T10:22:34;21.50;;;13.25;;
19026;SDS011;9646;52.034;5.554;2023-02-10T10:27:51;29.35;;;19.33;;
19026;SDS011;9646;52.034;5.554;2023-02-10T10:30:25;31.65;;;18.90;;
19026;SDS011;9646;52.034;5.554;2023-02-10T10:32:56;20.10;;;12.57;;
19026;SDS011;9646;52.034;5.554;2023-02-10T10:35:26;27.05;;;19.15;;
19026;SDS011;9646;52.034;5.554;2023-02-10T10:37:54;31.65;;;18.92;;
19026;SDS011;9646;52.034;5.554;2023-02-10T10:40:22;30.70;;;19.00;;
19026;SDS011;9646;52.034;5.554;2023-02-10T10:42:52;28.25;;;18.42;;
19026;SDS011;9646;52.034;5.554;2023-02-10T10:45:26;30.20;;;19.70;;
19026;SDS011;9646;52.034;5.554;2023-02-10T10:47:56;26.25;;;16.15;;
19026;SDS011;9646;52.034;5.554;2023-02-10T10:50:26;32.90;;;19.40;;
19026;SDS011;9646;52.034;5.554;2023-02-10T10:52:53;29.30;;;17.95;;
19026;SDS011;9646;52.034;5.554;2023-02-10T10:55:22;29.95;;;16.98;;
19026;SDS011;9646;52.034;5.554;2023-02-10T10:57:51;28.55;;;16.48;;
19026;SDS011;9646;52.034;5.554;2023-02-10T11:00:20;34.53;;;19.75;;
19026;SDS011;9646;52.034;5.554;2023-02-10T11:02:53;32.05;;;17.42;;
19026;SDS011;9646;52.034;5.554;2023-02-10T11:05:20;35.15;;;18.73;;
19026;SDS011;9646;52.034;5.554;2023-02-10T11:07:48;30.17;;;19.25;;
19026;SDS011;9646;52.034;5.554;2023-02-10T11:10:22;31.10;;;19.00;;
19026;SDS011;9646;52.034;5.554;2023-02-10T11:12:50;27.75;;;17.42;;
19026;SDS011;9646;52.034;5.554;2023-02-10T11:18:11;29.23;;;17.98;;
19026;SDS011;9646;52.034;5.554;2023-02-10T11:20:40;21.70;;;11.38;;
19026;SDS011;9646;52.034;5.554;2023-02-10T11:23:18;29.35;;;16.92;;
19026;SDS011;9646;52.034;5.554;2023-02-10T11:25:45;23.58;;;15.52;;
19026;SDS011;9646;52.034;5.554;2023-02-10T11:28:17;26.00;;;15.63;;
19026;SDS011;9646;52.034;5.554;2023-02-10T11:30:45;26.65;;;16.02;;
19026;SDS011;9646;52.034;5.554;2023-02-10T11:33:19;27.38;;;15.80;;
19026;SDS011;9646;52.034;5.554;2023-02-10T11:35:47;21.00;;;12.50;;
19026;SDS011;9646;52.034;5.554;2023-02-10T11:38:16;26.55;;;16.85;;
19026;SDS011;9646;52.034;5.554;2023-02-10T11:40:49;29.15;;;15.68;;
19026;SDS011;9646;52.034;5.554;2023-02-10T11:43:17;27.58;;;16.15;;
19026;SDS011;9646;52.034;5.554;2023-02-10T11:45:51;28.60;;;16.45;;
19026;SDS011;9646;52.034;5.554;2023-02-10T11:48:21;30.05;;;17.30;;
19026;SDS011;9646;52.034;5.554;2023-02-10T11:50:59;32.45;;;17.45;;
19026;SDS011;9646;52.034;5.554;2023-02-10T11:53:27;32.88;;;18.20;;
19026;SDS011;9646;52.034;5.554;2023-02-10T11:55:56;30.30;;;17.30;;
19026;SDS011;9646;52.034;5.554;2023-02-10T11:58:43;29.08;;;16.40;;
19026;SDS011;9646;52.034;5.554;2023-02-10T12:01:36;31.45;;;17.38;;
19026;SDS011;9646;52.034;5.554;2023-02-10T12:04:10;27.95;;;15.38;;
19026;SDS011;9646;52.034;5.554;2023-02-10T12:06:42;18.90;;;12.15;;
19026;SDS011;9646;52.034;5.554;2023-02-10T12:09:14;30.00;;;16.90;;
19026;SDS011;9646;52.034;5.554;2023-02-10T12:11:46;28.98;;;16.08;;
19026;SDS011;9646;52.034;5.554;2023-02-10T12:14:23;29.90;;;17.05;;
19026;SDS011;9646;52.034;5.554;2023-02-10T12:16:55;23.15;;;14.43;;
19026;SDS011;9646;52.034;5.554;2023-02-10T12:19:28;31.65;;;17.38;;
19026;SDS011;9646;52.034;5.554;2023-02-10T12:22:02;33.17;;;17.02;;
19026;SDS011;9646;52.034;5.554;2023-02-10T12:27:22;29.40;;;16.45;;
19026;SDS011;9646;52.034;5.554;2023-02-10T12:29:56;29.85;;;18.00;;
19026;SDS011;9646;52.034;5.554;2023-02-10T12:32:26;36.42;;;17.90;;
19026;SDS011;9646;52.034;5.554;2023-02-10T12:35:03;30.73;;;15.85;;
19026;SDS011;9646;52.034;5.554;2023-02-10T12:37:35;32.50;;;17.20;;
19026;SDS011;9646;52.034;5.554;2023-02-10T12:43:01;31.20;;;15.18;;
19026;SDS011;9646;52.034;5.554;2023-02-10T12:45:32;27.95;;;16.23;;
19026;SDS011;9646;52.034;5.554;2023-02-10T12:48:04;30.58;;;15.68;;
19026;SDS011;9646;52.034;5.554;2023-02-10T12:50:36;27.73;;;15.27;;
19026;SDS011;9646;52.034;5.554;2023-02-10T12:53:08;33.58;;;15.85;;
19026;SDS011;9646;52.034;5.554;2023-02-10T12:55:39;34.42;;;15.52;;
19026;SDS011;9646;52.034;5.554;2023-02-10T12:58:11;28.85;;;16.70;;
19026;SDS011;9646;52.034;5.554;2023-02-10T13:00:41;28.13;;;15.13;;
19026;SDS011;9646;52.034;5.554;2023-02-10T13:03:11;31.42;;;17.10;;
19026;SDS011;9646;52.034;5.554;2023-02-10T13:05:42;31.25;;;15.80;;
19026;SDS011;9646;52.034;5.554;2023-02-10T13:08:11;33.75;;;19.27;;
19026;SDS011;9646;52.034;5.554;2023-02-10T13:10:40;35.25;;;16.70;;
19026;SDS011;9646;52.034;5.554;2023-02-10T13:13:11;34.47;;;17.65;;
19026;SDS011;9646;52.034;5.554;2023-02-10T13:15:40;30.45;;;15.63;;
19026;SDS011;9646;52.034;5.554;2023-02-10T13:18:14;35.65;;;18.90;;
19026;SDS011;9646;52.034;5.554;2023-02-10T13:20:47;34.60;;;16.88;;
19026;SDS011;9646;52.034;5.554;2023-02-10T13:23:19;34.85;;;18.80;;
19026;SDS011;9646;52.034;5.554;2023-02-10T13:25:51;35.55;;;19.88;;
19026;SDS011;9646;52.034;5.554;2023-02-10T13:28:23;37.13;;;18.38;;
19026;SDS011;9646;52.034;5.554;2023-02-10T13:31:00;31.10;;;18.83;;
19026;SDS011;9646;52.034;5.554;2023-02-10T13:33:31;32.28;;;17.92;;
19026;SDS011;9646;52.034;5.554;2023-02-10T13:36:04;37.13;;;17.63;;
19026;SDS011;9646;52.034;5.554;2023-02-10T13:38:32;35.20;;;18.65;;
19026;SDS011;9646;52.034;5.554;2023-02-10T13:41:00;37.97;;;19.83;;
19026;SDS011;9646;52.034;5.554;2023-02-10T13:43:41;42.05;;;20.00;;
19026;SDS011;9646;52.034;5.554;2023-02-10T13:46:15;40.65;;;23.73;;
19026;SDS011;9646;52.034;5.554;2023-02-10T13:48:50;40.60;;;21.38;;
19026;SDS011;9646;52.034;5.554;2023-02-10T13:51:26;40.55;;;21.42;;
19026;SDS011;9646;52.034;5.554;2023-02-10T13:53:54;38.80;;;21.48;;
19026;SDS011;9646;52.034;5.554;2023-02-10T13:56:24;42.13;;;23.38;;
19026;SDS011;9646;52.034;5.554;2023-02-10T13:58:52;38.53;;;22.73;;
19026;SDS011;9646;52.034;5.554;2023-02-10T14:01:30;43.63;;;23.50;;
19026;SDS011;9646;52.034;5.554;2023-02-10T14:03:57;41.75;;;23.75;;
19026;SDS011;9646;52.034;5.554;2023-02-10T14:06:34;41.22;;;23.65;;
19026;SDS011;9646;52.034;5.554;2023-02-10T14:09:02;51.50;;;27.33;;
19026;SDS011;9646;52.034;5.554;2023-02-10T14:11:33;54.30;;;30.58;;
19026;SDS011;9646;52.034;5.554;2023-02-10T14:14:03;58.13;;;28.95;;
19026;SDS011;9646;52.034;5.554;2023-02-10T14:16:42;54.95;;;32.03;;
19026;SDS011;9646;52.034;5.554;2023-02-10T14:19:19;61.05;;;34.50;;
19026;SDS011;9646;52.034;5.554;2023-02-10T14:21:48;58.90;;;32.47;;
19026;SDS011;9646;52.034;5.554;2023-02-10T14:24:16;54.92;;;30.73;;
19026;SDS011;9646;52.034;5.554;2023-02-10T14:26:44;67.20;;;34.67;;
19026;SDS011;9646;52.034;5.554;2023-02-10T14:29:13;64.18;;;35.13;;
19026;SDS011;9646;52.034;5.554;2023-02-10T14:31:41;61.17;;;38.22;;
19026;SDS011;9646;52.034;5.554;2023-02-10T14:34:16;55.60;;;32.10;;
19026;SDS011;9646;52.034;5.554;2023-02-10T14:36:50;51.45;;;30.10;;
19026;SDS011;9646;52.034;5.554;2023-02-10T14:39:19;57.60;;;35.80;;
19026;SDS011;9646;52.034;5.554;2023-02-10T14:41:46;57.65;;;33.30;;
19026;SDS011;9646;52.034;5.554;2023-02-10T14:44:18;56.15;;;32.75;;
19026;SDS011;9646;52.034;5.554;2023-02-10T14:46:48;54.45;;;30.85;;
19026;SDS011;9646;52.034;5.554;2023-02-10T14:49:16;54.28;;;34.42;;
19026;SDS011;9646;52.034;5.554;2023-02-10T14:51:46;48.78;;;28.95;;
19026;SDS011;9646;52.034;5.554;2023-02-10T14:54:16;48.53;;;28.92;;
19026;SDS011;9646;52.034;5.554;2023-02-10T14:56:48;49.60;;;29.23;;
19026;SDS011;9646;52.034;5.554;2023-02-10T14:59:20;45.72;;;29.58;;
19026;SDS011;9646;52.034;5.554;2023-02-10T15:01:47;48.10;;;28.83;;
19026;SDS011;9646;52.034;5.554;2023-02-10T15:04:15;46.00;;;28.60;;